Time;durP1;ratioP1;P1;durP2;ratioP2;P2;SDS_P1;SDS_P2;PMS_P1;PMS_P2;Temp;Humidity;BMP_temperature;BMP_pressure;BME280_temperature;BME280_humidity;BME280_pressure;Samples;Min_cycle;Max_cycle;Signal;HPM_P1;HPM_P2
2024/01/27 00:00:01;;;;;;;;;;;;;;;;;;5093853;28;1893;-66
2024/01/27 00:02:26;;;;;;;;;;;;;;;;;;5093551;28;908;-67
2024/01/27 00:04:53;;;;;;;;;;;;;;;;;;5093752;28;1046;-67
2024/01/27 00:07:18;;;;;;;;;;;;;;;;;;5093730;28;836;-67
2024/01/27 00:09:43;;;;;;;;;;;;;;;;;;5093393;28;923;-62
2024/01/27 00:12:08;;;;;;;;;;;;;;;;;;5093195;28;908;-62
2024/01/27 00:14:37;;;;;;;;;;;;;;;;;;5093689;28;864;-62
2024/01/27 00:17:02;;;;;;;;;;;;;;;;;;5093565;28;1050;-62
2024/01/27 00:19:27;;;;;;;;;;;;;;;;;;5093259;28;1902;-62
2024/01/27 00:21:53;;;;;;;;;;;;;;;;;;5093320;28;1038;-62
2024/01/27 00:24:18;;;;;;;;;;;;;;;;;;5093341;28;1058;-62
2024/01/27 00:26:43;;;;;;;;;;;;;;;;;;5093088;28;852;-62
2024/01/27 00:29:09;;;;;;;;;;;;;;;;;;5093344;28;920;-62
2024/01/27 00:31:34;;;;;;;;;;;;;;;;;;5093361;28;864;-61
2024/01/27 00:33:59;;;;;;;;;;;;;;;;;;5092843;28;908;-62
2024/01/27 00:36:25;;;;;;;;;;;;;;;;;;5093292;28;845;-62
2024/01/27 00:38:50;;;;;;;;;;;;;;;;;;5093237;28;809;-62
2024/01/27 00:41:17;;;;;;;;;;;;;;;;;;5093436;28;1902;-66
2024/01/27 00:43:42;;;;;;;;;;;;;;;;;;5092606;28;906;-67
2024/01/27 00:46:07;;;;;;;;;;;;;;;;;;5092997;28;876;-66
2024/01/27 00:48:32;;;;;;;;;;;;;;;;;;5093216;28;990;-67
2024/01/27 00:50:58;;;;;;;;;;;;;;;;;;5074891;28;1286;-67
2024/01/27 00:53:23;;;;;;;;;;;;;;;;;;5093000;28;971;-67
2024/01/27 00:55:50;;;;;;;;;;;;;;;;;;5092711;28;1024;-66
2024/01/27 00:58:15;;;;;;;;;;;;;;;;;;5092423;28;972;-65
2024/01/27 01:00:40;;;;;;;;;;;;;;;;;;5092469;28;1897;-66
2024/01/27 01:03:06;;;;;;;;;;;;;;;;;;5092369;28;1034;-66
2024/01/27 01:05:31;;;;;;;;;;;;;;;;;;5092662;28;954;-67
2024/01/27 01:07:56;;;;;;;;;;;;;;;;;;5092860;28;1003;-66
2024/01/27 01:10:21;;;;;;;;;;;;;;;;;;5093031;28;1046;-67
2024/01/27 01:12:47;;;;;;;;;;;;;;;;;;5092932;28;837;-66
2024/01/27 01:15:12;;;;;;;;;;;;;;;;;;5092700;28;1081;-66
2024/01/27 01:17:38;;;;;;;;;;;;;;;;;;5092394;28;934;-67
2024/01/27 01:20:04;;;;;;;;;;;;;;;;;;5092635;28;1902;-66
2024/01/27 01:22:29;;;;;;;;;;;;;;;;;;5074641;28;1235;-67
2024/01/27 01:24:54;;;;;;;;;;;;;;;;;;5092843;28;833;-65
2024/01/27 01:27:21;;;;;;;;;;;;;;;;;;5092487;28;891;-66
2024/01/27 01:29:46;;;;;;;;;;;;;;;;;;5092658;28;891;-66
2024/01/27 01:32:11;;;;;;;;;;;;;;;;;;5092626;28;899;-67
2024/01/27 01:34:36;;;;;;;;;;;;;;;;;;5092432;28;999;-66
2024/01/27 01:37:02;;;;;;;;;;;;;;;;;;5093247;28;896;-67
2024/01/27 01:39:27;;;;;;;;;;;;;;;;;;5092547;28;1971;-66
2024/01/27 01:41:53;;;;;;;;;;;;;;;;;;5092202;28;879;-66
2024/01/27 01:44:18;;;;;;;;;;;;;;;;;;5092577;28;852;-67
2024/01/27 01:46:43;;;;;;;;;;;;;;;;;;5094738;28;872;-67
2024/01/27 01:49:08;;;;;;;;;;;;;;;;;;5095681;28;920;-66
2024/01/27 01:51:33;;;;;;;;;;;;;;;;;;5096002;28;1046;-66
2024/01/27 01:54:00;;;;;;;;;;;;;;;;;;5096021;28;991;-67
2024/01/27 01:56:25;;;;;;;;;;;;;;;;;;5095802;28;994;-67
2024/01/27 01:58:50;;;;;;;;;;;;;;;;;;5095827;28;864;-67
2024/01/27 02:01:21;;;;;;;;;;;;;;;;;;5095741;28;1968;-67
2024/01/27 02:03:55;;;;;;;;;;;;;;;;;;5095741;28;824;-66
2024/01/27 02:06:20;;;;;;;;;;;;;;;;;;5095819;28;982;-62
2024/01/27 02:08:45;;;;;;;;;;;;;;;;;;5095944;28;998;-62
2024/01/27 02:11:11;;;;;;;;;;;;;;;;;;5095880;28;845;-62
2024/01/27 02:13:36;;;;;;;;;;;;;;;;;;5095844;28;1049;-62
2024/01/27 02:16:01;;;;;;;;;;;;;;;;;;5096006;28;1006;-61
2024/01/27 02:18:26;;;;;;;;;;;;;;;;;;5095529;28;923;-62
2024/01/27 02:20:52;;;;;;;;;;;;;;;;;;5095695;28;1909;-61
2024/01/27 02:23:17;;;;;;;;;;;;;;;;;;5095515;28;896;-62
2024/01/27 02:25:42;;;;;;;;;;;;;;;;;;5095599;28;935;-62
2024/01/27 02:28:07;;;;;;;;;;;;;;;;;;5095951;28;817;-62
2024/01/27 02:30:33;;;;;;;;;;;;;;;;;;5095522;28;828;-62
2024/01/27 02:32:58;;;;;;;;;;;;;;;;;;5095283;28;829;-62
2024/01/27 02:35:23;;;;;;;;;;;;;;;;;;5095730;28;631;-62
2024/01/27 02:37:48;;;;;;;;;;;;;;;;;;5095365;28;828;-62
2024/01/27 02:40:14;;;;;;;;;;;;;;;;;;5095507;28;1902;-62
2024/01/27 02:42:41;;;;;;;;;;;;;;;;;;5095382;28;924;-62
2024/01/27 02:45:10;;;;;;;;;;;;;;;;;;5095093;28;911;-62
2024/01/27 02:47:35;;;;;;;;;;;;;;;;;;5095175;28;840;-62
2024/01/27 02:50:00;;;;;;;;;;;;;;;;;;5095557;28;991;-62
2024/01/27 02:52:26;;;;;;;;;;;;;;;;;;5095300;28;990;-62
2024/01/27 02:54:52;;;;;;;;;;;;;;;;;;5095252;28;824;-62
2024/01/27 02:57:18;;;;;;;;;;;;;;;;;;5094242;28;1072;-62
2024/01/27 02:59:45;;;;;;;;;;;;;;;;;;5095439;28;1973;-62
2024/01/27 03:02:10;;;;;;;;;;;;;;;;;;5092200;28;1202;-61
2024/01/27 03:04:35;;;;;;;;;;;;;;;;;;5091531;28;1230;-63
2024/01/27 03:07:01;;;;;;;;;;;;;;;;;;5091758;28;1261;-62
2024/01/27 03:09:26;;;;;;;;;;;;;;;;;;5091597;28;1092;-62
2024/01/27 03:11:51;;;;;;;;;;;;;;;;;;5091064;28;1202;-62
2024/01/27 03:14:17;;;;;;;;;;;;;;;;;;5090926;28;1144;-62
2024/01/27 03:16:43;;;;;;;;;;;;;;;;;;5091187;28;1159;-62
2024/01/27 03:19:08;;;;;;;;;;;;;;;;;;5091616;28;1910;-62
2024/01/27 03:21:33;;;;;;;;;;;;;;;;;;5091379;28;1083;-62
2024/01/27 03:23:58;;;;;;;;;;;;;;;;;;5091105;28;1151;-63
2024/01/27 03:26:24;;;;;;;;;;;;;;;;;;5090577;28;1123;-63
2024/01/27 03:28:50;;;;;;;;;;;;;;;;;;5072499;28;1342;-63
2024/01/27 03:31:15;;;;;;;;;;;;;;;;;;5090741;28;1111;-63
2024/01/27 03:33:40;;;;;;;;;;;;;;;;;;5090819;28;1171;-63
2024/01/27 03:36:12;;;;;;;;;;;;;;;;;;5090454;28;1128;-63
2024/01/27 03:38:37;;;;;;;;;;;;;;;;;;5072149;28;1270;-63
2024/01/27 03:41:03;;;;;;;;;;;;;;;;;;5090452;28;1906;-63
2024/01/27 03:43:30;;;;;;;;;;;;;;;;;;5090421;28;1139;-62
2024/01/27 03:45:56;;;;;;;;;;;;;;;;;;5090704;28;1135;-63
2024/01/27 03:48:21;;;;;;;;;;;;;;;;;;5090346;28;1183;-63
2024/01/27 03:50:46;;;;;;;;;;;;;;;;;;5090351;28;1163;-63
2024/01/27 03:53:11;;;;;;;;;;;;;;;;;;5093549;28;922;-63
2024/01/27 03:55:36;;;;;;;;;;;;;;;;;;5096407;28;890;-63
2024/01/27 03:58:02;;;;;;;;;;;;;;;;;;5114093;28;875;-63
2024/01/27 04:00:29;;;;;;;;;;;;;;;;;;5114025;28;1913;-63
2024/01/27 04:02:54;;;;;;;;;;;;;;;;;;5114360;28;836;-67
2024/01/27 04:05:20;;;;;;;;;;;;;;;;;;5113565;28;990;-67
2024/01/27 04:07:45;;;;;;;;;;;;;;;;;;5114030;28;962;-68
2024/01/27 04:10:10;;;;;;;;;;;;;;;;;;5112256;28;1290;-68
2024/01/27 04:12:35;;;;;;;;;;;;;;;;;;5113842;28;883;-67
2024/01/27 04:15:01;;;;;;;;;;;;;;;;;;5113706;28;883;-67
2024/01/27 04:17:27;;;;;;;;;;;;;;;;;;5113842;28;813;-67
2024/01/27 04:19:52;;;;;;;;;;;;;;;;;;5113625;28;1949;-67
2024/01/27 04:22:17;;;;;;;;;;;;;;;;;;5113073;28;1228;-63
2024/01/27 04:24:42;;;;;;;;;;;;;;;;;;5114420;28;812;-62
2024/01/27 04:27:08;;;;;;;;;;;;;;;;;;5114109;28;879;-63
2024/01/27 04:29:33;;;;;;;;;;;;;;;;;;5114081;28;986;-62
2024/01/27 04:31:58;;;;;;;;;;;;;;;;;;5113385;28;891;-63
2024/01/27 04:34:23;;;;;;;;;;;;;;;;;;5113936;28;1007;-63
2024/01/27 04:36:49;;;;;;;;;;;;;;;;;;5113964;28;880;-63
2024/01/27 04:39:14;;;;;;;;;;;;;;;;;;5114080;28;1871;-63
2024/01/27 04:41:43;;;;;;;;;;;;;;;;;;5114002;28;1061;-63
2024/01/27 04:44:08;;;;;;;;;;;;;;;;;;5114128;28;855;-63
2024/01/27 04:46:33;;;;;;;;;;;;;;;;;;5114273;28;939;-62
2024/01/27 04:48:59;;;;;;;;;;;;;;;;;;5114027;28;931;-63
2024/01/27 04:51:24;;;;;;;;;;;;;;;;;;5112655;28;999;-63
2024/01/27 04:53:50;;;;;;;;;;;;;;;;;;5114128;28;927;-63
2024/01/27 04:56:15;;;;;;;;;;;;;;;;;;5113441;28;900;-62
2024/01/27 04:58:40;;;;;;;;;;;;;;;;;;5113055;28;904;-63
2024/01/27 05:01:06;;;;;;;;;;;;;;;;;;5113332;28;1905;-63
2024/01/27 05:03:31;;;;;;;;;;;;;;;;;;5113740;28;926;-63
2024/01/27 05:05:56;;;;;;;;;;;;;;;;;;5113403;28;815;-62
2024/01/27 05:08:22;;;;;;;;;;;;;;;;;;5113727;28;978;-62
2024/01/27 05:10:47;;;;;;;;;;;;;;;;;;5113176;28;989;-62
2024/01/27 05:13:12;;;;;;;;;;;;;;;;;;5113453;28;781;-62
2024/01/27 05:15:37;;;;;;;;;;;;;;;;;;5113434;28;964;-62
2024/01/27 05:18:03;;;;;;;;;;;;;;;;;;5113574;28;883;-62
2024/01/27 05:20:28;;;;;;;;;;;;;;;;;;5113851;28;1977;-62
2024/01/27 05:22:53;;;;;;;;;;;;;;;;;;5117030;28;1094;-63
2024/01/27 05:25:18;;;;;;;;;;;;;;;;;;5117288;28;833;-62
2024/01/27 05:27:44;;;;;;;;;;;;;;;;;;5117086;28;828;-62
2024/01/27 05:30:09;;;;;;;;;;;;;;;;;;5116836;28;886;-62
2024/01/27 05:32:34;;;;;;;;;;;;;;;;;;5116543;27;1045;-62
2024/01/27 05:35:00;;;;;;;;;;;;;;;;;;5117628;28;1049;-62
2024/01/27 05:37:25;;;;;;;;;;;;;;;;;;5117185;27;835;-61
2024/01/27 05:39:50;;;;;;;;;;;;;;;;;;5116923;28;1901;-62
2024/01/27 05:42:16;;;;;;;;;;;;;;;;;;5116677;27;886;-62
2024/01/27 05:44:41;;;;;;;;;;;;;;;;;;5116889;28;987;-62
2024/01/27 05:47:07;;;;;;;;;;;;;;;;;;5116754;28;892;-62
2024/01/27 05:49:32;;;;;;;;;;;;;;;;;;5116835;28;998;-62
2024/01/27 05:51:57;;;;;;;;;;;;;;;;;;5115411;28;1373;-62
2024/01/27 05:54:22;;;;;;;;;;;;;;;;;;5116970;28;813;-62
2024/01/27 05:56:47;;;;;;;;;;;;;;;;;;5116562;28;920;-61
2024/01/27 05:59:13;;;;;;;;;;;;;;;;;;5116219;28;1964;-62
2024/01/27 06:01:40;;;;;;;;;;;;;;;;;;5115034;28;1481;-61
2024/01/27 06:04:05;;;;;;;;;;;;;;;;;;5116802;27;891;-62
2024/01/27 06:06:31;;;;;;;;;;;;;;;;;;5115979;28;1353;-62
2024/01/27 06:08:56;;;;;;;;;;;;;;;;;;5115475;28;1144;-62
2024/01/27 06:11:24;;;;;;;;;;;;;;;;;;5115267;28;1146;-62
2024/01/27 06:13:49;;;;;;;;;;;;;;;;;;5116525;28;1015;-61
2024/01/27 06:16:15;;;;;;;;;;;;;;;;;;5116827;28;899;-62
2024/01/27 06:18:40;;;;;;;;;;;;;;;;;;5117332;28;887;-61
2024/01/27 06:21:05;;;;;;;;;;;;;;;;;;5116870;28;1958;-62
2024/01/27 06:23:30;;;;;;;;;;;;;;;;;;5116758;28;861;-62
2024/01/27 06:25:56;;;;;;;;;;;;;;;;;;5116860;28;832;-61
2024/01/27 06:28:21;;;;;;;;;;;;;;;;;;5116473;28;1054;-61
2024/01/27 06:30:46;;;;;;;;;;;;;;;;;;5116227;28;993;-61
2024/01/27 06:33:12;;;;;;;;;;;;;;;;;;5115231;28;844;-61
2024/01/27 06:35:37;;;;;;;;;;;;;;;;;;5116128;28;757;-62
2024/01/27 06:38:02;;;;;;;;;;;;;;;;;;5116190;28;769;-62
2024/01/27 06:40:27;;;;;;;;;;;;;;;;;;5115623;28;1902;-61
2024/01/27 06:42:53;;;;;;;;;;;;;;;;;;5115583;28;894;-62
2024/01/27 06:45:18;;;;;;;;;;;;;;;;;;5115917;28;874;-62
2024/01/27 06:47:44;;;;;;;;;;;;;;;;;;5115386;28;825;-62
2024/01/27 06:50:09;;;;;;;;;;;;;;;;;;5115665;28;966;-62
2024/01/27 06:52:34;;;;;;;;;;;;;;;;;;5115137;28;859;-62
2024/01/27 06:54:59;;;;;;;;;;;;;;;;;;5115270;28;966;-62
2024/01/27 06:57:25;;;;;;;;;;;;;;;;;;5113879;28;1182;-63
2024/01/27 06:59:55;;;;;;;;;;;;;;;;;;5115449;28;1902;-62
2024/01/27 07:02:23;;;;;;;;;;;;;;;;;;5115538;28;836;-61
2024/01/27 07:04:49;;;;;;;;;;;;;;;;;;5114915;28;851;-61
2024/01/27 07:07:14;;;;;;;;;;;;;;;;;;5113486;27;907;-61
2024/01/27 07:09:39;;;;;;;;;;;;;;;;;;5115086;28;840;-62
2024/01/27 07:12:05;;;;;;;;;;;;;;;;;;5114759;28;1001;-62
2024/01/27 07:14:30;;;;;;;;;;;;;;;;;;5114724;28;887;-61
2024/01/27 07:16:55;;;;;;;;;;;;;;;;;;5113541;28;903;-61
2024/01/27 07:19:20;;;;;;;;;;;;;;;;;;5115483;28;1898;-62
2024/01/27 07:21:45;;;;;;;;;;;;;;;;;;5114876;28;821;-62
2024/01/27 07:24:11;;;;;;;;;;;;;;;;;;5114534;28;876;-62
2024/01/27 07:26:36;;;;;;;;;;;;;;;;;;5114839;28;820;-61
2024/01/27 07:29:01;;;;;;;;;;;;;;;;;;5114653;28;1089;-60
2024/01/27 07:31:27;;;;;;;;;;;;;;;;;;5114751;28;891;-61
2024/01/27 07:33:52;;;;;;;;;;;;;;;;;;5114516;28;832;-61
2024/01/27 07:36:17;;;;;;;;;;;;;;;;;;5114918;28;931;-62
2024/01/27 07:38:42;;;;;;;;;;;;;;;;;;5114527;28;804;-62
2024/01/27 07:41:07;;;;;;;;;;;;;;;;;;5114542;28;1965;-61
2024/01/27 07:43:33;;;;;;;;;;;;;;;;;;5114076;28;820;-62
2024/01/27 07:45:58;;;;;;;;;;;;;;;;;;5114220;28;832;-61
2024/01/27 07:48:23;;;;;;;;;;;;;;;;;;5114279;28;816;-61
2024/01/27 07:50:50;;;;;;;;;;;;;;;;;;5114378;28;879;-62
2024/01/27 07:53:15;;;;;;;;;;;;;;;;;;5114163;28;1068;-61
2024/01/27 07:55:41;;;;;;;;;;;;;;;;;;5114532;28;991;-62
2024/01/27 07:58:06;;;;;;;;;;;;;;;;;;5114312;28;979;-62
2024/01/27 08:00:32;;;;;;;;;;;;;;;;;;5114645;28;1964;-63
2024/01/27 08:02:57;;;;;;;;;;;;;;;;;;5114070;28;851;-63
2024/01/27 08:05:23;;;;;;;;;;;;;;;;;;5114523;28;856;-62
2024/01/27 08:07:48;;;;;;;;;;;;;;;;;;5113995;28;812;-62
2024/01/27 08:10:13;;;;;;;;;;;;;;;;;;5114897;28;919;-63
2024/01/27 08:12:38;;;;;;;;;;;;;;;;;;5113008;28;1165;-63
2024/01/27 08:15:04;;;;;;;;;;;;;;;;;;5113686;28;994;-62
2024/01/27 08:17:29;;;;;;;;;;;;;;;;;;5114168;28;892;-63
2024/01/27 08:19:55;;;;;;;;;;;;;;;;;;5113910;28;1898;-63
2024/01/27 08:22:20;;;;;;;;;;;;;;;;;;5113487;28;1176;-62
2024/01/27 08:24:45;;;;;;;;;;;;;;;;;;5114376;28;906;-62
2024/01/27 08:27:10;;;;;;;;;;;;;;;;;;5113668;28;912;-62
2024/01/27 08:29:36;;;;;;;;;;;;;;;;;;5113846;28;1002;-63
2024/01/27 08:32:01;;;;;;;;;;;;;;;;;;5114199;28;820;-62
2024/01/27 08:34:26;;;;;;;;;;;;;;;;;;5113543;28;880;-63
2024/01/27 08:36:51;;;;;;;;;;;;;;;;;;5113576;28;852;-62
2024/01/27 08:39:17;;;;;;;;;;;;;;;;;;5113718;28;1948;-63
2024/01/27 08:41:42;;;;;;;;;;;;;;;;;;5111911;28;1384;-61
2024/01/27 08:44:07;;;;;;;;;;;;;;;;;;5113279;28;816;-61
2024/01/27 08:46:32;;;;;;;;;;;;;;;;;;5113761;28;868;-61
2024/01/27 08:48:58;;;;;;;;;;;;;;;;;;5114022;28;894;-61
2024/01/27 08:51:23;;;;;;;;;;;;;;;;;;5113836;28;701;-61
2024/01/27 08:53:48;;;;;;;;;;;;;;;;;;5113092;28;1294;-62
2024/01/27 08:56:14;;;;;;;;;;;;;;;;;;5114312;28;974;-61
2024/01/27 08:58:39;;;;;;;;;;;;;;;;;;5114417;28;1173;-62
2024/01/27 09:01:07;;;;;;;;;;;;;;;;;;5112414;28;1980;-62
2024/01/27 09:03:32;;;;;;;;;;;;;;;;;;5112517;27;1131;-62
2024/01/27 09:05:58;;;;;;;;;;;;;;;;;;5113577;28;1171;-62
2024/01/27 09:08:23;;;;;;;;;;;;;;;;;;5104720;28;1095;-62
2024/01/27 09:10:48;;;;;;;;;;;;;;;;;;5109059;28;1163;-62
2024/01/27 09:13:13;;;;;;;;;;;;;;;;;;5107219;28;1294;-61
2024/01/27 09:15:39;;;;;;;;;;;;;;;;;;5091046;28;1565;-62
2024/01/27 09:18:05;;;;;;;;;;;;;;;;;;5092498;28;1233;-62
2024/01/27 09:20:31;;;;;;;;;;;;;;;;;;5092033;28;1984;-61
2024/01/27 09:22:56;;;;;;;;;;;;;;;;;;5095497;28;1052;-62
2024/01/27 09:25:22;;;;;;;;;;;;;;;;;;5096612;28;805;-61
2024/01/27 09:27:47;;;;;;;;;;;;;;;;;;5096806;28;1210;-66
2024/01/27 09:30:12;;;;;;;;;;;;;;;;;;5096638;28;817;-66
2024/01/27 09:32:38;;;;;;;;;;;;;;;;;;5097011;28;697;-61
2024/01/27 09:35:04;;;;;;;;;;;;;;;;;;5096858;28;975;-62
2024/01/27 09:37:30;;;;;;;;;;;;;;;;;;5095750;28;872;-62
2024/01/27 09:39:55;;;;;;;;;;;;;;;;;;5095775;28;1970;-62
2024/01/27 09:42:21;;;;;;;;;;;;;;;;;;5096919;28;1014;-63
2024/01/27 09:44:48;;;;;;;;;;;;;;;;;;5096952;28;868;-63
2024/01/27 09:47:13;;;;;;;;;;;;;;;;;;5097054;28;994;-61
2024/01/27 09:49:39;;;;;;;;;;;;;;;;;;5096884;28;1010;-61
2024/01/27 09:52:05;;;;;;;;;;;;;;;;;;5096746;28;869;-62
2024/01/27 09:54:30;;;;;;;;;;;;;;;;;;5096542;28;908;-62
2024/01/27 09:56:55;;;;;;;;;;;;;;;;;;5096359;28;976;-62
2024/01/27 09:59:21;;;;;;;;;;;;;;;;;;5096783;28;1898;-62
2024/01/27 10:01:48;;;;;;;;;;;;;;;;;;5078827;28;833;-62
2024/01/27 10:04:13;;;;;;;;;;;;;;;;;;5096236;28;856;-63
2024/01/27 10:06:39;;;;;;;;;;;;;;;;;;5093995;28;1269;-62
2024/01/27 10:09:04;;;;;;;;;;;;;;;;;;5073803;28;1476;-62
2024/01/27 10:11:31;;;;;;;;;;;;;;;;;;5092914;28;1238;-62
2024/01/27 10:13:57;;;;;;;;;;;;;;;;;;5092644;28;1210;-62
2024/01/27 10:16:22;;;;;;;;;;;;;;;;;;5087095;28;1183;-62
2024/01/27 10:18:58;;;;;;;;;;;;;;;;;;5091891;28;1231;-62
2024/01/27 10:21:26;;;;;;;;;;;;;;;;;;5092335;28;1933;-62
2024/01/27 10:23:51;;;;;;;;;;;;;;;;;;5092064;28;1194;-63
2024/01/27 10:26:16;;;;;;;;;;;;;;;;;;5092485;28;1080;-62
2024/01/27 10:28:42;;;;;;;;;;;;;;;;;;5091867;28;1336;-62
2024/01/27 10:31:10;;;;;;;;;;;;;;;;;;5092337;28;1222;-63
2024/01/27 10:33:35;;;;;;;;;;;;;;;;;;5057216;28;1160;-63
2024/01/27 10:36:00;;;;;;;;;;;;;;;;;;5092226;28;1150;-63
2024/01/27 10:38:35;;;;;;;;;;;;;;;;;;5091795;28;1139;-63
2024/01/27 10:41:01;;;;;;;;;;;;;;;;;;5092362;28;1893;-62
2024/01/27 10:43:27;;;;;;;;;;;;;;;;;;5092303;28;1198;-62
2024/01/27 10:45:53;;;;;;;;;;;;;;;;;;5091791;28;1202;-62
2024/01/27 10:48:18;;;;;;;;;;;;;;;;;;5092042;28;1221;-62
2024/01/27 10:50:43;;;;;;;;;;;;;;;;;;5091514;28;1227;-62
2024/01/27 10:53:35;;;;;;;;;;;;;;;;;;5094484;28;1187;-62
2024/01/27 10:56:01;;;;;;;;;;;;;;;;;;5097862;28;1146;-62
2024/01/27 10:58:26;;;;;;;;;;;;;;;;;;5115131;28;1005;-62
2024/01/27 11:00:53;;;;;;;;;;;;;;;;;;5115590;27;1972;-62
2024/01/27 11:03:18;;;;;;;;;;;;;;;;;;5115943;28;800;-62
2024/01/27 11:05:46;;;;;;;;;;;;;;;;;;5114888;28;931;-63
2024/01/27 11:08:12;;;;;;;;;;;;;;;;;;5111197;28;1254;-63
2024/01/27 11:10:38;;;;;;;;;;;;;;;;;;5090427;28;1167;-63
2024/01/27 11:13:04;;;;;;;;;;;;;;;;;;5110224;28;1167;-62
2024/01/27 11:15:29;;;;;;;;;;;;;;;;;;5109465;28;1159;-63
2024/01/27 11:17:59;;;;;;;;;;;;;;;;;;5102956;28;1166;-63
2024/01/27 11:20:25;;;;;;;;;;;;;;;;;;5091836;28;1972;-63
2024/01/27 11:22:50;;;;;;;;;;;;;;;;;;5092028;28;1357;-63
2024/01/27 11:25:17;;;;;;;;;;;;;;;;;;5093489;28;903;-63
2024/01/27 11:27:43;;;;;;;;;;;;;;;;;;5095065;28;836;-63
2024/01/27 11:30:27;;;;;;;;;;;;;;;;;;5094595;28;1127;-63
2024/01/27 11:32:54;;;;;;;;;;;;;;;;;;5094912;28;916;-63
2024/01/27 11:35:19;;;;;;;;;;;;;;;;;;5094727;28;966;-63
2024/01/27 11:37:44;;;;;;;;;;;;;;;;;;5094735;28;837;-63
2024/01/27 11:40:10;;;;;;;;;;;;;;;;;;5093517;28;1894;-63
2024/01/27 11:42:35;;;;;;;;;;;;;;;;;;5093837;28;1171;-62
2024/01/27 11:45:01;;;;;;;;;;;;;;;;;;5095423;28;836;-63
2024/01/27 11:47:27;;;;;;;;;;;;;;;;;;5095399;28;813;-63
2024/01/27 11:49:53;;;;;;;;;;;;;;;;;;5094274;28;814;-63
2024/01/27 11:52:18;;;;;;;;;;;;;;;;;;5093666;28;859;-63
2024/01/27 11:54:43;;;;;;;;;;;;;;;;;;5094492;28;864;-63
2024/01/27 11:57:09;;;;;;;;;;;;;;;;;;5094110;28;1035;-63
2024/01/27 11:59:35;;;;;;;;;;;;;;;;;;5093662;28;1960;-63
2024/01/27 12:02:01;;;;;;;;;;;;;;;;;;5094139;28;820;-63
2024/01/27 12:04:26;;;;;;;;;;;;;;;;;;5094034;28;911;-63
2024/01/27 12:06:51;;;;;;;;;;;;;;;;;;5094097;28;828;-63
2024/01/27 12:09:18;;;;;;;;;;;;;;;;;;5091008;28;1280;-62
2024/01/27 12:11:43;;;;;;;;;;;;;;;;;;5088507;28;1128;-62
2024/01/27 12:14:08;;;;;;;;;;;;;;;;;;5070289;28;1286;-62
2024/01/27 12:16:37;;;;;;;;;;;;;;;;;;5088348;28;1215;-63
2024/01/27 12:19:02;;;;;;;;;;;;;;;;;;5087892;28;1229;-64
2024/01/27 12:21:28;;;;;;;;;;;;;;;;;;5088653;28;1961;-63
2024/01/27 12:23:54;;;;;;;;;;;;;;;;;;5090790;28;1159;-62
2024/01/27 12:26:20;;;;;;;;;;;;;;;;;;5093803;28;878;-63
2024/01/27 12:28:46;;;;;;;;;;;;;;;;;;5093510;28;816;-63
2024/01/27 12:31:12;;;;;;;;;;;;;;;;;;5092124;28;1115;-63
2024/01/27 12:33:37;;;;;;;;;;;;;;;;;;5093612;28;920;-63
2024/01/27 12:36:02;;;;;;;;;;;;;;;;;;5093318;28;993;-63
2024/01/27 12:38:27;;;;;;;;;;;;;;;;;;5093268;28;844;-63
2024/01/27 12:40:53;;;;;;;;;;;;;;;;;;5093251;28;1979;-63
2024/01/27 12:43:18;;;;;;;;;;;;;;;;;;5093335;28;942;-64
2024/01/27 12:45:43;;;;;;;;;;;;;;;;;;5093444;28;1062;-63
2024/01/27 12:48:09;;;;;;;;;;;;;;;;;;5093292;28;864;-63
2024/01/27 12:50:34;;;;;;;;;;;;;;;;;;5093121;28;816;-62
2024/01/27 12:52:59;;;;;;;;;;;;;;;;;;5093693;28;911;-62
2024/01/27 12:55:25;;;;;;;;;;;;;;;;;;5092905;28;1096;-62
2024/01/27 12:57:50;;;;;;;;;;;;;;;;;;5093244;28;919;-62
2024/01/27 13:00:15;;;;;;;;;;;;;;;;;;5093091;28;1874;-62
2024/01/27 13:02:40;;;;;;;;;;;;;;;;;;5075017;28;1337;-62
2024/01/27 13:05:06;;;;;;;;;;;;;;;;;;5093345;28;898;-62
2024/01/27 13:07:31;;;;;;;;;;;;;;;;;;5093616;28;936;-68
2024/01/27 13:09:57;;;;;;;;;;;;;;;;;;5089867;28;1178;-68
2024/01/27 13:12:22;;;;;;;;;;;;;;;;;;5090367;28;1163;-62
2024/01/27 13:14:48;;;;;;;;;;;;;;;;;;5091678;28;1040;-62
2024/01/27 13:17:14;;;;;;;;;;;;;;;;;;5093188;28;934;-63
2024/01/27 13:19:39;;;;;;;;;;;;;;;;;;5075169;28;1973;-62
2024/01/27 13:22:06;;;;;;;;;;;;;;;;;;5093794;28;947;-62
2024/01/27 13:24:31;;;;;;;;;;;;;;;;;;5093541;28;1217;-62
2024/01/27 13:26:57;;;;;;;;;;;;;;;;;;5093382;28;939;-62
2024/01/27 13:29:23;;;;;;;;;;;;;;;;;;5075464;28;1195;-62
2024/01/27 13:31:48;;;;;;;;;;;;;;;;;;5093734;28;990;-62
2024/01/27 13:34:14;;;;;;;;;;;;;;;;;;5093841;28;816;-62
2024/01/27 13:36:39;;;;;;;;;;;;;;;;;;5093601;28;809;-62
2024/01/27 13:39:04;;;;;;;;;;;;;;;;;;5093533;28;899;-62
2024/01/27 13:41:30;;;;;;;;;;;;;;;;;;5094995;28;1893;-62
2024/01/27 13:43:55;;;;;;;;;;;;;;;;;;5097769;28;935;-61
2024/01/27 13:46:20;;;;;;;;;;;;;;;;;;5097240;28;881;-62
2024/01/27 13:48:47;;;;;;;;;;;;;;;;;;5096827;28;916;-62
2024/01/27 13:51:12;;;;;;;;;;;;;;;;;;5096933;28;844;-62
2024/01/27 13:53:37;;;;;;;;;;;;;;;;;;5096532;28;1097;-62
2024/01/27 13:56:04;;;;;;;;;;;;;;;;;;5096510;28;1017;-61
2024/01/27 13:58:29;;;;;;;;;;;;;;;;;;5078279;28;1576;-62
2024/01/27 14:00:54;;;;;;;;;;;;;;;;;;5096686;28;1981;-61
2024/01/27 14:03:19;;;;;;;;;;;;;;;;;;5096196;28;900;-61
2024/01/27 14:05:47;;;;;;;;;;;;;;;;;;5096662;28;896;-61
2024/01/27 14:08:12;;;;;;;;;;;;;;;;;;5096031;28;828;-61
2024/01/27 14:10:38;;;;;;;;;;;;;;;;;;5093763;28;1213;-61
2024/01/27 14:13:08;;;;;;;;;;;;;;;;;;5091667;28;1166;-61
2024/01/27 14:15:33;;;;;;;;;;;;;;;;;;5092329;28;1099;-61
2024/01/27 14:17:59;;;;;;;;;;;;;;;;;;5091768;28;1175;-67
2024/01/27 14:20:24;;;;;;;;;;;;;;;;;;5091426;28;1889;-61
2024/01/27 14:22:49;;;;;;;;;;;;;;;;;;5093291;28;1159;-61
2024/01/27 14:25:15;;;;;;;;;;;;;;;;;;5094620;28;843;-62
2024/01/27 14:27:40;;;;;;;;;;;;;;;;;;5095683;28;986;-62
2024/01/27 14:30:05;;;;;;;;;;;;;;;;;;5095328;28;923;-61
2024/01/27 14:32:31;;;;;;;;;;;;;;;;;;5096046;28;868;-61
2024/01/27 14:34:56;;;;;;;;;;;;;;;;;;5095594;28;824;-61
2024/01/27 14:37:22;;;;;;;;;;;;;;;;;;5095581;28;863;-62
2024/01/27 14:39:48;;;;;;;;;;;;;;;;;;5077451;28;1893;-62
2024/01/27 14:42:13;;;;;;;;;;;;;;;;;;5095214;28;919;-62
2024/01/27 14:44:38;;;;;;;;;;;;;;;;;;5095481;28;856;-62
2024/01/27 14:47:05;;;;;;;;;;;;;;;;;;5095650;28;1041;-62
2024/01/27 14:49:30;;;;;;;;;;;;;;;;;;5095665;28;924;-62
2024/01/27 14:51:55;;;;;;;;;;;;;;;;;;5095718;28;884;-61
2024/01/27 14:54:21;;;;;;;;;;;;;;;;;;5094005;28;800;-62
2024/01/27 14:56:46;;;;;;;;;;;;;;;;;;5107367;28;1061;-62
2024/01/27 14:59:12;;;;;;;;;;;;;;;;;;5116035;28;879;-62
2024/01/27 15:01:37;;;;;;;;;;;;;;;;;;5116456;28;1995;-62
2024/01/27 15:04:02;;;;;;;;;;;;;;;;;;5115888;28;1269;-62
2024/01/27 15:06:27;;;;;;;;;;;;;;;;;;5107253;28;1131;-62
2024/01/27 15:08:53;;;;;;;;;;;;;;;;;;5107490;28;1143;-62
2024/01/27 15:11:18;;;;;;;;;;;;;;;;;;5105455;28;1159;-62
2024/01/27 15:13:44;;;;;;;;;;;;;;;;;;5092796;28;1123;-63
2024/01/27 15:16:09;;;;;;;;;;;;;;;;;;5102441;28;1431;-62
2024/01/27 15:18:37;;;;;;;;;;;;;;;;;;5096084;28;1246;-64
2024/01/27 15:21:02;;;;;;;;;;;;;;;;;;5093285;28;1909;-64
2024/01/27 15:23:28;;;;;;;;;;;;;;;;;;5093830;28;927;-64
2024/01/27 15:25:54;;;;;;;;;;;;;;;;;;5094725;28;829;-62
2024/01/27 15:28:19;;;;;;;;;;;;;;;;;;5095067;28;908;-64
2024/01/27 15:30:47;;;;;;;;;;;;;;;;;;5095674;28;876;-63
2024/01/27 15:33:12;;;;;;;;;;;;;;;;;;5095743;28;817;-64
2024/01/27 15:35:38;;;;;;;;;;;;;;;;;;5095893;28;869;-65
2024/01/27 15:38:03;;;;;;;;;;;;;;;;;;5095614;28;915;-64
2024/01/27 15:40:28;;;;;;;;;;;;;;;;;;5095211;28;1897;-64
2024/01/27 15:42:55;;;;;;;;;;;;;;;;;;5094423;28;778;-63
2024/01/27 15:45:21;;;;;;;;;;;;;;;;;;5092772;28;1195;-68
2024/01/27 15:47:46;;;;;;;;;;;;;;;;;;5100723;28;1261;-64
2024/01/27 15:50:13;;;;;;;;;;;;;;;;;;5096481;28;1155;-63
2024/01/27 15:52:38;;;;;;;;;;;;;;;;;;5097978;28;1132;-63
2024/01/27 15:55:07;;;;;;;;;;;;;;;;;;5114924;28;990;-63
2024/01/27 15:57:34;;;;;;;;;;;;;;;;;;5114493;28;985;-63
2024/01/27 15:59:59;;;;;;;;;;;;;;;;;;5096978;28;1898;-63
2024/01/27 16:02:25;;;;;;;;;;;;;;;;;;5114569;28;836;-63
2024/01/27 16:04:50;;;;;;;;;;;;;;;;;;5114924;28;847;-63
2024/01/27 16:07:15;;;;;;;;;;;;;;;;;;5114624;28;820;-63
2024/01/27 16:09:51;;;;;;;;;;;;;;;;;;5114622;28;871;-63
2024/01/27 16:12:16;;;;;;;;;;;;;;;;;;5112627;28;1186;-63
2024/01/27 16:14:41;;;;;;;;;;;;;;;;;;5109008;28;1171;-62
2024/01/27 16:17:06;;;;;;;;;;;;;;;;;;5096084;28;1155;-62
2024/01/27 16:19:32;;;;;;;;;;;;;;;;;;5112879;28;1960;-62
2024/01/27 16:21:57;;;;;;;;;;;;;;;;;;5112271;28;1052;-63
2024/01/27 16:24:22;;;;;;;;;;;;;;;;;;5112510;28;856;-63
2024/01/27 16:26:48;;;;;;;;;;;;;;;;;;5112989;28;903;-63
2024/01/27 16:29:13;;;;;;;;;;;;;;;;;;5113930;28;903;-64
2024/01/27 16:31:39;;;;;;;;;;;;;;;;;;5114507;28;936;-64
2024/01/27 16:34:04;;;;;;;;;;;;;;;;;;5114604;28;879;-64
2024/01/27 16:36:29;;;;;;;;;;;;;;;;;;5114862;28;831;-63
2024/01/27 16:38:54;;;;;;;;;;;;;;;;;;5112616;28;789;-63
2024/01/27 16:41:20;;;;;;;;;;;;;;;;;;5114902;28;1918;-62
2024/01/27 16:43:45;;;;;;;;;;;;;;;;;;5114949;28;828;-63
2024/01/27 16:46:10;;;;;;;;;;;;;;;;;;5115009;28;825;-63
2024/01/27 16:48:35;;;;;;;;;;;;;;;;;;5114376;28;907;-63
2024/01/27 16:51:02;;;;;;;;;;;;;;;;;;5114689;28;782;-63
2024/01/27 16:53:27;;;;;;;;;;;;;;;;;;5114566;28;880;-63
2024/01/27 16:55:53;;;;;;;;;;;;;;;;;;5115089;28;1006;-63
2024/01/27 16:58:18;;;;;;;;;;;;;;;;;;5114784;28;867;-63
2024/01/27 17:00:43;;;;;;;;;;;;;;;;;;5114683;28;2017;-64